createdAt,value
2023-04-13T00:01:01.707Z,96772.00
2023-04-13T00:03:34.180Z,96773.19
2023-04-13T00:06:04.770Z,96770.19
2023-04-13T00:08:36.496Z,96756.22
2023-04-13T00:11:08.445Z,96760.38
2023-04-13T00:13:41.796Z,96748.59
2023-04-13T00:16:13.178Z,96746.19
2023-04-13T00:18:45.818Z,96739.81
2023-04-13T00:21:17.499Z,96743.00
2023-04-13T00:23:47.956Z,96742.59
2023-04-13T00:26:21.233Z,96738.63
2023-04-13T00:28:51.535Z,96732.63
2023-04-13T00:31:22.381Z,96735.22
2023-04-13T00:33:53.297Z,96737.22
2023-04-13T00:36:25.153Z,96725.41
2023-04-13T00:38:55.234Z,96723.81
2023-04-13T00:41:24.289Z,96719.44
2023-04-13T00:43:54.365Z,96719.03
2023-04-13T00:46:23.854Z,96717.44
2023-04-13T00:48:55.792Z,96719.44
2023-04-13T00:51:26.268Z,96720.22
2023-04-13T00:53:57.460Z,96717.03
2023-04-13T00:56:28.486Z,96718.81
2023-04-13T00:58:59.978Z,96720.44
2023-04-13T01:01:30.407Z,96719.44
2023-04-13T01:04:02.038Z,96705.03
2023-04-13T01:06:45.176Z,96700.63
2023-04-13T01:09:22.982Z,96687.06
2023-04-13T01:12:01.509Z,96699.03
2023-04-13T01:14:38.567Z,96690.63
2023-04-13T01:17:21.775Z,96684.06
2023-04-13T01:19:59.247Z,96678.25
2023-04-13T01:22:33.153Z,96672.69
2023-04-13T01:25:29.245Z,96673.47
2023-04-13T01:28:05.999Z,96669.28
2023-04-13T01:30:37.688Z,96659.09
2023-04-13T01:33:09.360Z,96670.91
2023-04-13T01:35:39.204Z,96661.09
2023-04-13T01:38:10.603Z,96678.91
2023-04-13T01:40:42.179Z,96667.91
2023-04-13T01:43:13.037Z,96681.31
2023-04-13T01:45:51.501Z,96679.88
2023-04-13T01:48:29.934Z,96673.91
2023-04-13T01:51:04.973Z,96676.31
2023-04-13T01:53:41.849Z,96687.69
2023-04-13T01:56:13.753Z,96675.31
2023-04-13T01:58:46.246Z,96665.91
2023-04-13T02:01:16.821Z,96662.31
2023-04-13T02:03:46.735Z,96658.13
2023-04-13T02:06:16.780Z,96670.69
2023-04-13T02:08:47.015Z,96668.91
2023-04-13T02:11:16.451Z,96661.09
2023-04-13T02:13:48.729Z,96674.88
2023-04-13T02:16:18.467Z,96672.06
2023-04-13T02:18:49.901Z,96680.28
2023-04-13T02:21:19.524Z,96676.31
2023-04-13T02:23:49.497Z,96666.91
2023-04-13T02:26:19.326Z,96674.31
2023-04-13T02:28:51.395Z,96674.09
2023-04-13T02:31:23.820Z,96663.53
2023-04-13T02:33:54.338Z,96680.09
2023-04-13T02:36:25.514Z,96670.28
2023-04-13T02:38:55.491Z,96675.91
2023-04-13T02:41:25.606Z,96672.91
2023-04-13T02:43:57.252Z,96673.94
2023-04-13T02:46:26.010Z,96668.91
2023-04-13T02:48:57.045Z,96673.72
2023-04-13T02:51:28.099Z,96665.34
2023-04-13T02:53:59.348Z,96669.16
2023-04-13T02:56:31.016Z,96674.13
2023-04-13T02:59:01.894Z,96682.31
2023-04-13T03:01:32.504Z,96682.13
2023-04-13T03:04:01.630Z,96669.56
2023-04-13T03:06:32.028Z,96670.34
2023-04-13T03:09:02.442Z,96675.97
2023-04-13T03:11:32.487Z,96676.72
2023-04-13T03:14:03.439Z,96675.34
2023-04-13T03:16:35.428Z,96679.72
2023-04-13T03:19:06.104Z,96669.75
2023-04-13T03:21:36.160Z,96677.34
2023-04-13T03:24:06.811Z,96684.97
2023-04-13T03:26:37.490Z,96681.97
2023-04-13T03:29:09.690Z,96680.75
2023-04-13T03:31:40.372Z,96676.56
2023-04-13T03:34:10.382Z,96694.34
2023-04-13T03:36:40.357Z,96693.13
2023-04-13T03:39:09.193Z,96687.16
2023-04-13T03:41:39.886Z,96710.34
2023-04-13T03:44:11.305Z,96702.94
2023-04-13T03:46:41.518Z,96704.56
2023-04-13T03:49:12.805Z,96710.75
2023-04-13T03:51:43.982Z,96704.16
2023-04-13T03:54:13.539Z,96704.38
2023-04-13T03:56:43.843Z,96715.94
2023-04-13T03:59:15.525Z,96719.56
2023-04-13T04:01:45.565Z,96727.16
2023-04-13T04:04:15.935Z,96715.34
2023-04-13T04:06:46.174Z,96734.75
2023-04-13T04:09:16.658Z,96730.75
2023-04-13T04:11:46.394Z,96731.94
2023-04-13T04:14:17.266Z,96728.75
2023-04-13T04:16:45.788Z,96741.94
2023-04-13T04:19:15.649Z,96737.16
2023-04-13T04:21:47.101Z,96740.56
2023-04-13T04:24:21.311Z,96736.56
2023-04-13T04:26:55.064Z,96747.97
2023-04-13T04:29:34.639Z,96741.94
2023-04-13T04:32:04.456Z,96751.97
2023-04-13T04:34:34.181Z,96747.78
2023-04-13T04:37:19.704Z,96751.19
2023-04-13T04:39:50.059Z,96753.16
2023-04-13T04:42:20.375Z,96762.75
2023-04-13T04:44:52.019Z,96754.97
2023-04-13T04:47:24.566Z,96765.16
2023-04-13T04:49:53.977Z,96764.97
2023-04-13T04:52:25.148Z,96769.38
2023-04-13T04:54:56.229Z,96773.56
2023-04-13T04:57:28.450Z,96786.56
2023-04-13T05:00:02.310Z,96779.38
2023-04-13T05:02:32.831Z,96781.97
2023-04-13T05:05:02.675Z,96785.56
2023-04-13T05:07:32.681Z,96783.38
2023-04-13T05:10:03.234Z,96789.97
2023-04-13T05:12:32.669Z,96799.16
2023-04-13T05:15:04.801Z,96800.97
2023-04-13T05:17:34.981Z,96800.34
2023-04-13T05:20:07.290Z,96800.34
2023-04-13T05:22:37.665Z,96800.34
2023-04-13T05:25:08.293Z,96821.97
2023-04-13T05:27:38.817Z,96807.16
2023-04-13T05:30:12.808Z,96820.34
2023-04-13T05:32:44.191Z,96820.34
2023-04-13T05:35:12.839Z,96827.31
2023-04-13T05:37:44.650Z,96833.53
2023-04-13T05:40:16.126Z,96833.91
2023-04-13T05:42:44.672Z,96846.72
2023-04-13T05:45:17.472Z,96847.53
2023-04-13T05:47:48.020Z,96847.53
2023-04-13T05:50:18.561Z,96850.72
2023-04-13T05:52:49.220Z,96861.34
2023-04-13T05:55:20.764Z,96859.97
2023-04-13T05:57:50.956Z,96857.75
2023-04-13T06:00:23.796Z,96861.94
2023-04-13T06:02:53.514Z,96863.31
2023-04-13T06:05:24.313Z,96867.53
2023-04-13T06:07:56.282Z,96865.16
2023-04-13T06:10:27.526Z,96863.56
2023-04-13T06:12:56.926Z,96865.56
2023-04-13T06:15:27.856Z,96863.72
2023-04-13T06:17:58.377Z,96864.53
2023-04-13T06:20:27.949Z,96868.75
2023-04-13T06:22:58.150Z,96864.75
2023-04-13T06:25:28.643Z,96872.97
2023-04-13T06:27:58.042Z,96882.16
2023-04-13T06:30:29.061Z,96882.75
2023-04-13T06:32:59.362Z,96883.16
2023-04-13T06:35:31.083Z,96882.78
2023-04-13T06:38:03.142Z,96887.19
2023-04-13T06:40:33.877Z,96898.78
2023-04-13T06:43:04.678Z,96898.78
2023-04-13T06:45:36.780Z,96887.19
2023-04-13T06:48:08.894Z,96896.38
2023-04-13T06:50:39.248Z,96905.59
2023-04-13T06:53:08.158Z,96895.59
2023-04-13T06:55:38.129Z,96898.00
2023-04-13T06:58:07.922Z,96898.78
2023-04-13T07:00:39.553Z,96899.59
2023-04-13T07:03:09.905Z,96899.03
2023-04-13T07:05:40.701Z,96908.03
2023-04-13T07:08:12.195Z,96902.81
2023-04-13T07:10:41.709Z,96907.22
2023-04-13T07:13:11.945Z,96908.63
2023-04-13T07:15:43.403Z,96908.22
2023-04-13T07:18:12.912Z,96917.41
2023-04-13T07:20:42.766Z,96910.00
2023-04-13T07:23:12.284Z,96915.69
2023-04-13T07:25:42.357Z,96917.47
2023-04-13T07:28:13.069Z,96920.06
2023-04-13T07:30:47.314Z,96921.47
2023-04-13T07:33:16.975Z,96917.06
2023-04-13T07:35:46.359Z,96921.25
2023-04-13T07:38:17.142Z,96926.03
2023-04-13T07:40:48.573Z,96929.28
2023-04-13T07:43:19.815Z,96930.25
2023-04-13T07:45:52.724Z,96933.66
2023-04-13T07:48:21.543Z,96934.09
2023-04-13T07:50:52.860Z,96940.06
2023-04-13T07:53:22.368Z,96944.06
2023-04-13T07:55:51.232Z,96942.47
2023-04-13T07:58:20.092Z,96948.50
2023-04-13T08:00:51.118Z,96957.31
2023-04-13T08:03:21.232Z,96958.50
2023-04-13T08:05:50.665Z,96972.13
2023-04-13T08:08:21.398Z,96967.34
2023-04-13T08:10:50.984Z,96970.94
2023-04-13T08:13:20.314Z,96976.16
2023-04-13T08:15:51.130Z,96965.97
2023-04-13T08:18:21.653Z,96971.38
2023-04-13T08:20:52.273Z,96969.41
2023-04-13T08:23:23.204Z,96977.59
2023-04-13T08:25:52.570Z,96977.38
2023-04-13T08:28:24.718Z,96986.41
2023-04-13T08:30:56.005Z,96981.22
2023-04-13T08:33:25.264Z,96997.81
2023-04-13T08:35:54.999Z,97000.44
2023-04-13T08:38:24.014Z,96996.00
2023-04-13T08:40:54.639Z,96992.63
2023-04-13T08:43:25.597Z,96993.44
2023-04-13T08:45:57.626Z,97005.47
2023-04-13T08:48:36.217Z,97005.88
2023-04-13T08:51:13.050Z,97011.31
2023-04-13T08:53:43.678Z,97008.72
2023-04-13T08:56:17.293Z,97007.91
2023-04-13T08:58:50.650Z,97010.94
2023-04-13T09:01:23.051Z,97011.53
2023-04-13T09:04:03.002Z,97012.34
2023-04-13T09:06:40.475Z,97003.94
2023-04-13T09:09:14.973Z,97011.94
2023-04-13T09:11:48.430Z,97003.16
2023-04-13T09:14:21.332Z,97010.78
2023-04-13T09:16:52.079Z,97009.97
2023-04-13T09:19:31.764Z,97006.38
2023-04-13T09:22:02.668Z,97007.97
2023-04-13T09:24:41.844Z,97008.38
2023-04-13T09:27:20.967Z,97022.19
2023-04-13T09:29:54.489Z,97020.63
2023-04-13T09:32:26.736Z,97014.78
2023-04-13T09:35:04.651Z,97024.81
2023-04-13T09:37:34.283Z,97027.22
2023-04-13T09:40:20.722Z,97047.25
2023-04-13T09:42:57.774Z,97037.41
2023-04-13T09:45:34.533Z,97033.59
2023-04-13T09:48:07.079Z,97041.25
2023-04-13T09:50:37.146Z,97043.66
2023-04-13T09:53:11.233Z,97033.44
2023-04-13T09:55:41.236Z,97033.44
2023-04-13T09:58:12.048Z,97029.63
2023-04-13T10:00:45.288Z,97031.84
2023-04-13T10:03:19.127Z,97026.41
2023-04-13T10:08:27.327Z,97021.19
2023-04-13T10:11:02.627Z,97022.00
2023-04-13T10:13:39.218Z,97019.38
2023-04-13T10:17:22.881Z,97017.16
2023-04-13T10:19:57.490Z,97021.16
2023-04-13T10:22:28.463Z,97017.53
2023-04-13T10:24:57.459Z,97018.34
2023-04-13T10:27:30.235Z,97021.97
2023-04-13T10:30:00.915Z,97018.34
2023-04-13T10:32:32.697Z,97016.72
2023-04-13T10:35:15.793Z,97005.88
2023-04-13T10:37:46.659Z,97006.50
2023-04-13T10:40:16.897Z,97007.28
2023-04-13T10:42:52.961Z,97012.25
2023-04-13T10:45:26.728Z,97010.63
2023-04-13T10:47:59.076Z,97011.81
2023-04-13T10:50:30.676Z,97015.03
2023-04-13T10:53:05.554Z,97007.56
2023-04-13T10:55:36.028Z,97011.53
2023-04-13T10:58:17.015Z,97017.53
2023-04-13T11:00:47.310Z,97018.13
2023-04-13T11:03:19.379Z,97014.28
2023-04-13T11:05:59.197Z,97020.09
2023-04-13T11:08:28.296Z,97020.13
2023-04-13T11:10:59.974Z,97025.97
2023-04-13T11:13:29.724Z,97031.16
2023-04-13T11:16:06.690Z,97032.16
2023-04-13T11:18:36.705Z,97030.34
2023-04-13T11:21:14.735Z,97035.34
2023-04-13T11:23:43.896Z,97030.50
2023-04-13T11:26:15.284Z,97042.56
2023-04-13T11:28:49.071Z,97044.59
2023-04-13T11:31:19.274Z,97032.94
2023-04-13T11:33:52.145Z,97036.97
2023-04-13T11:36:23.988Z,97055.06
2023-04-13T11:38:55.478Z,97063.13
2023-04-13T11:41:25.032Z,97081.09
2023-04-13T11:43:55.279Z,97074.44
2023-04-13T11:46:25.766Z,97076.25
2023-04-13T11:48:57.122Z,97073.25
2023-04-13T11:51:27.491Z,97053.94
2023-04-13T11:53:57.538Z,97053.75
2023-04-13T11:56:27.142Z,97052.34
2023-04-13T11:58:56.256Z,97061.56
2023-04-13T12:01:26.606Z,97060.19
2023-04-13T12:04:14.509Z,97049.91
2023-04-13T12:06:48.866Z,97048.09
2023-04-13T12:09:20.814Z,97059.16
2023-04-13T12:12:07.897Z,97051.09
2023-04-13T12:17:37.698Z,97039.44
2023-04-13T12:20:07.318Z,97031.41
2023-04-13T12:25:20.623Z,97021.34
2023-04-13T12:27:52.680Z,97025.72
2023-04-13T12:30:23.990Z,97023.72
2023-04-13T12:32:56.702Z,97028.28
2023-04-13T12:35:27.363Z,97017.25
2023-04-13T12:37:59.185Z,97016.44
2023-04-13T12:40:28.111Z,97022.84
2023-04-13T12:42:58.926Z,97021.59
2023-04-13T12:45:31.731Z,97014.09
2023-04-13T12:48:01.151Z,97045.63
2023-04-13T12:50:32.539Z,97029.94
2023-04-13T12:53:04.375Z,97042.53
2023-04-13T12:55:33.661Z,97038.09
2023-04-13T12:58:03.923Z,97039.72
2023-04-13T13:00:32.973Z,97044.75
2023-04-13T13:03:12.903Z,97046.97
2023-04-13T13:05:44.869Z,97035.13
2023-04-13T13:08:16.246Z,97045.94
2023-04-13T13:10:46.360Z,97039.53
2023-04-13T13:13:17.179Z,97044.75
2023-04-13T13:15:47.555Z,97035.16
2023-04-13T13:18:17.235Z,97045.19
2023-04-13T13:20:49.820Z,97041.56
2023-04-13T13:23:21.148Z,97049.75
2023-04-13T13:26:10.587Z,97045.84
2023-04-13T13:28:40.494Z,97032.53
2023-04-13T13:31:10.269Z,97032.91
2023-04-13T13:33:40.130Z,97036.06
2023-04-13T13:36:09.395Z,97044.66
2023-04-13T13:38:40.714Z,97036.09
2023-04-13T13:41:10.986Z,97034.81
2023-04-13T13:43:40.437Z,97032.53
2023-04-13T13:46:11.132Z,97036.38
2023-04-13T13:48:41.184Z,97031.31
2023-04-13T13:51:10.507Z,97028.56
2023-04-13T13:53:42.422Z,97034.19
2023-04-13T13:56:11.529Z,97029.66
2023-04-13T13:58:40.462Z,97034.06
2023-04-13T14:01:10.321Z,97030.66
2023-04-13T14:03:40.187Z,97024.31
2023-04-13T14:06:10.412Z,97023.28
2023-04-13T14:08:42.287Z,97026.81
2023-04-13T14:11:13.264Z,97024.53
2023-04-13T14:13:42.802Z,97023.84
2023-04-13T14:16:12.345Z,97024.75
2023-04-13T14:18:41.881Z,97036.50
2023-04-13T14:21:11.147Z,97044.56
2023-04-13T14:23:42.573Z,97051.34
2023-04-13T14:26:13.515Z,97056.25
2023-04-13T14:28:43.949Z,97054.25
2023-04-13T14:31:15.181Z,97052.34
2023-04-13T14:33:44.249Z,97055.22
2023-04-13T14:36:15.768Z,97047.84
2023-04-13T14:38:47.174Z,97046.47
2023-04-13T14:41:16.917Z,97042.88
2023-04-13T14:43:45.522Z,97049.19
2023-04-13T14:46:14.555Z,97046.22
2023-04-13T14:48:44.440Z,97042.19
2023-04-13T14:51:19.078Z,97046.19
2023-04-13T14:53:49.356Z,97049.88
2023-04-13T14:56:18.867Z,97050.22
2023-04-13T14:58:48.855Z,97049.50
2023-04-13T15:01:19.735Z,97045.00
2023-04-13T15:03:49.150Z,97049.66
2023-04-13T15:06:19.519Z,97054.22
2023-04-13T15:08:51.621Z,97047.75
2023-04-13T15:11:22.031Z,97044.75
2023-04-13T15:13:52.035Z,97050.34
2023-04-13T15:16:22.757Z,97051.63
2023-04-13T15:18:52.393Z,97061.22
2023-04-13T15:21:22.410Z,97070.22
2023-04-13T15:23:53.347Z,97064.16
2023-04-13T15:26:24.912Z,97071.69
2023-04-13T15:28:55.514Z,97064.97
2023-04-13T15:31:25.486Z,97071.47
2023-04-13T15:33:55.588Z,97061.31
2023-04-13T15:36:24.828Z,97054.84
2023-04-13T15:38:54.948Z,97059.03
2023-04-13T15:41:27.259Z,97051.84
2023-04-13T15:43:59.632Z,97052.44
2023-04-13T15:46:29.432Z,97051.50
2023-04-13T15:49:00.013Z,97052.88
2023-04-13T15:51:30.024Z,97053.31
2023-04-13T15:54:01.086Z,97052.53
2023-04-13T15:56:31.051Z,97066.00
2023-04-13T15:59:00.637Z,97064.63
2023-04-13T16:01:45.164Z,97066.00
2023-04-13T16:04:14.536Z,97070.09
2023-04-13T16:06:44.509Z,97070.09
2023-04-13T16:09:15.301Z,97077.38
2023-04-13T16:11:45.448Z,97084.22
2023-04-13T16:14:15.914Z,97090.50
2023-04-13T16:16:46.645Z,97095.59
2023-04-13T16:19:18.223Z,97103.47
2023-04-13T16:21:50.966Z,97106.56
2023-04-13T16:24:21.360Z,97116.94
2023-04-13T16:26:51.890Z,97106.09
2023-04-13T16:29:22.544Z,97120.34
2023-04-13T16:31:52.981Z,97124.06
2023-04-13T16:34:26.110Z,97124.97
2023-04-13T16:36:56.776Z,97134.44
2023-04-13T16:39:28.182Z,97132.47
2023-04-13T16:41:57.527Z,97142.97
2023-04-13T16:44:27.437Z,97139.41
2023-04-13T16:46:57.218Z,97147.94
2023-04-13T16:49:26.349Z,97155.22
2023-04-13T16:51:56.030Z,97156.84
2023-04-13T16:54:28.057Z,97154.09
2023-04-13T16:56:57.662Z,97160.09
2023-04-13T16:59:27.505Z,97169.88
2023-04-13T17:01:58.105Z,97167.13
2023-04-13T17:04:27.631Z,97177.53
2023-04-13T17:07:02.244Z,97177.41
2023-04-13T17:09:33.683Z,97168.94
2023-04-13T17:12:02.510Z,97171.00
2023-04-13T17:14:33.604Z,97156.44
2023-04-13T17:17:03.622Z,97159.78
2023-04-13T17:19:34.311Z,97160.94
2023-04-13T17:22:04.297Z,97169.38
2023-04-13T17:24:35.394Z,97168.94
2023-04-13T17:27:06.978Z,97173.75
2023-04-13T17:29:38.523Z,97178.53
2023-04-13T17:32:07.457Z,97173.75
2023-04-13T17:34:37.776Z,97181.59
2023-04-13T17:37:08.136Z,97185.28
2023-04-13T17:39:42.804Z,97176.38
2023-04-13T17:42:12.745Z,97184.84
2023-04-13T17:44:41.664Z,97193.69
2023-04-13T17:47:10.902Z,97192.91
2023-04-13T17:49:40.942Z,97189.09
2023-04-13T17:52:10.081Z,97189.78
2023-04-13T17:54:41.073Z,97185.63
2023-04-13T17:57:11.502Z,97190.50
2023-04-13T17:59:42.054Z,97192.94
2023-04-13T18:02:11.099Z,97197.88
2023-04-13T18:04:41.429Z,97197.88
2023-04-13T18:07:11.039Z,97199.19
2023-04-13T18:09:42.272Z,97200.66
2023-04-13T18:12:12.925Z,97201.78
2023-04-13T18:14:41.344Z,97203.84
2023-04-13T18:17:10.837Z,97202.53
2023-04-13T18:19:39.908Z,97216.88
2023-04-13T18:22:10.190Z,97217.75
2023-04-13T18:24:42.059Z,97220.44
2023-04-13T18:27:12.589Z,97223.94
2023-04-13T18:29:41.008Z,97227.22
2023-04-13T18:32:10.058Z,97234.72
2023-04-13T18:34:40.645Z,97233.50
2023-04-13T18:37:11.500Z,97237.34
2023-04-13T18:39:41.423Z,97241.78
2023-04-13T18:42:11.067Z,97239.34
2023-04-13T18:44:40.537Z,97247.44
2023-04-13T18:47:10.195Z,97249.47
2023-04-13T18:49:39.677Z,97256.72
2023-04-13T18:52:10.385Z,97255.13
2023-04-13T18:54:40.998Z,97265.19
2023-04-13T18:57:10.010Z,97263.41
2023-04-13T18:59:39.235Z,97262.19
2023-04-13T19:02:08.375Z,97266.78
2023-04-13T19:04:39.993Z,97273.03
2023-04-13T19:07:09.876Z,97270.81
2023-04-13T19:09:40.566Z,97288.09
2023-04-13T19:12:09.987Z,97291.91
2023-04-13T19:14:39.182Z,97298.91
2023-04-13T19:17:09.131Z,97305.34
2023-04-13T19:19:37.989Z,97304.53
2023-04-13T19:22:08.054Z,97308.34
2023-04-13T19:24:38.073Z,97302.91
2023-04-13T19:27:08.335Z,97309.56
2023-04-13T19:29:40.381Z,97304.13
2023-04-13T19:32:12.499Z,97308.53
2023-04-13T19:34:42.688Z,97307.94
2023-04-13T19:37:13.425Z,97319.75
2023-04-13T19:39:43.251Z,97321.31
2023-04-13T19:42:15.183Z,97326.53
2023-04-13T19:44:44.197Z,97330.56
2023-04-13T19:47:13.447Z,97334.16
2023-04-13T19:49:43.931Z,97341.97
2023-04-13T19:52:16.926Z,97334.34
2023-04-13T19:54:45.817Z,97335.72
2023-04-13T19:57:16.761Z,97332.50
2023-04-13T19:59:45.715Z,97335.50
2023-04-13T20:02:16.077Z,97331.25
2023-04-13T20:04:47.861Z,97341.84
2023-04-13T20:07:18.354Z,97334.41
2023-04-13T20:09:47.750Z,97337.94
2023-04-13T20:12:19.260Z,97347.34
2023-04-13T20:14:50.026Z,97348.69
2023-04-13T20:17:19.005Z,97344.41
2023-04-13T20:19:50.474Z,97347.44
2023-04-13T20:22:22.434Z,97342.59
2023-04-13T20:24:51.487Z,97337.91
2023-04-13T20:27:23.405Z,97341.63
2023-04-13T20:29:54.019Z,97339.19
2023-04-13T20:32:22.728Z,97333.41
2023-04-13T20:34:51.866Z,97333.78
2023-04-13T20:37:22.970Z,97329.56
2023-04-13T20:39:53.254Z,97335.56
2023-04-13T20:42:23.574Z,97335.91
2023-04-13T20:44:57.687Z,97349.28
2023-04-13T20:47:28.501Z,97351.00
2023-04-13T20:50:00.048Z,97350.78
2023-04-13T20:52:30.555Z,97348.56
2023-04-13T20:55:01.191Z,97355.13
2023-04-13T20:57:31.833Z,97355.69
2023-04-13T21:00:02.368Z,97360.72
2023-04-13T21:02:32.399Z,97358.00
2023-04-13T21:05:03.763Z,97363.19
2023-04-13T21:07:32.401Z,97357.19
2023-04-13T21:10:02.508Z,97354.13
2023-04-13T21:12:34.526Z,97357.72
2023-04-13T21:15:03.442Z,97357.13
2023-04-13T21:17:33.227Z,97362.44
2023-04-13T21:20:05.270Z,97355.53
2023-04-13T21:22:35.510Z,97358.94
2023-04-13T21:25:08.774Z,97350.16
2023-04-13T21:27:40.054Z,97361.56
2023-04-13T21:30:10.909Z,97357.56
2023-04-13T21:32:41.944Z,97354.69
2023-04-13T21:35:15.748Z,97366.09
2023-04-13T21:37:45.196Z,97360.63
2023-04-13T21:40:14.617Z,97371.41
2023-04-13T21:42:45.811Z,97369.69
2023-04-13T21:45:15.975Z,97366.66
2023-04-13T21:47:47.753Z,97368.28
2023-04-13T21:50:17.477Z,97365.69
2023-04-13T21:52:46.846Z,97370.06
2023-04-13T21:55:19.019Z,97367.38
2023-04-13T21:57:50.544Z,97361.22
2023-04-13T22:00:20.546Z,97364.78
2023-04-13T22:02:49.605Z,97359.94
2023-04-13T22:05:18.658Z,97366.66
2023-04-13T22:07:47.013Z,97361.03
2023-04-13T22:10:18.080Z,97360.59
2023-04-13T22:12:49.424Z,97360.50
2023-04-13T22:15:19.877Z,97360.50
2023-04-13T22:17:50.034Z,97364.00
2023-04-13T22:20:21.460Z,97364.00
2023-04-13T22:22:51.878Z,97358.00
2023-04-13T22:25:25.774Z,97366.59
2023-04-13T22:27:57.305Z,97364.22
2023-04-13T22:30:29.549Z,97365.50
2023-04-13T22:32:59.485Z,97374.53
2023-04-13T22:35:29.590Z,97362.44
2023-04-13T22:37:59.311Z,97373.00
2023-04-13T22:40:29.211Z,97377.66
2023-04-13T22:43:00.039Z,97373.97
2023-04-13T22:45:30.146Z,97369.06
2023-04-13T22:47:59.479Z,97376.91
2023-04-13T22:50:28.940Z,97377.13
2023-04-13T22:52:58.895Z,97386.50
2023-04-13T22:55:28.368Z,97382.47
2023-04-13T22:57:59.755Z,97381.28
2023-04-13T23:00:29.807Z,97376.72
2023-04-13T23:03:00.469Z,97391.69
2023-04-13T23:05:30.677Z,97383.75
2023-04-13T23:08:00.221Z,97376.94
2023-04-13T23:10:31.644Z,97382.44
2023-04-13T23:13:02.744Z,97378.22
2023-04-13T23:15:32.196Z,97385.03
2023-04-13T23:18:03.164Z,97382.72
2023-04-13T23:20:33.988Z,97387.13
2023-04-13T23:23:03.439Z,97382.78
2023-04-13T23:25:33.315Z,97385.38
2023-04-13T23:28:04.613Z,97391.38
2023-04-13T23:30:34.478Z,97388.47
2023-04-13T23:33:04.522Z,97400.41
2023-04-13T23:35:34.643Z,97393.25
2023-04-13T23:38:03.880Z,97398.16
2023-04-13T23:40:33.514Z,97401.22
2023-04-13T23:43:04.322Z,97404.19
2023-04-13T23:45:34.531Z,97407.25
2023-04-13T23:48:05.641Z,97409.41
2023-04-13T23:50:35.641Z,97401.47
2023-04-13T23:53:06.758Z,97405.38
2023-04-13T23:55:37.284Z,97413.34
2023-04-13T23:58:09.282Z,97414.47
